Time;durP1;ratioP1;P1;durP2;ratioP2;P2;SDS_P1;SDS_P2;PMS_P1;PMS_P2;Temp;Humidity;BMP_temperature;BMP_pressure;BME280_temperature;BME280_humidity;BME280_pressure;Samples;Min_cycle;Max_cycle;Signal;HPM_P1;HPM_P2
2021/06/30 00:00:25;;;;;;;0.10;0.10;;;;;;;23.71;60.21;98765.28;5070704;28;20028;-75
2021/06/30 00:02:51;;;;;;;0.20;0.20;;;;;;;23.72;60.17;98769.59;5072072;28;20541;-77
2021/06/30 00:05:16;;;;;;;0.30;0.30;;;;;;;23.74;60.24;98776.25;5090115;28;20470;-77
2021/06/30 00:07:42;;;;;;;0.00;0.00;;;;;;;23.70;60.00;98766.44;5091799;28;20081;-76
2021/06/30 00:10:08;;;;;;;0.10;0.10;;;;;;;23.66;60.29;98769.13;5091626;28;20024;-77
2021/06/30 00:12:35;;;;;;;0.00;0.00;;;;;;;23.62;60.31;98769.06;5068790;28;20036;-76
2021/06/30 00:15:03;;;;;;;0.20;0.20;;;;;;;23.56;60.46;98765.09;5071365;28;20039;-76
2021/06/30 00:17:29;;;;;;;0.10;0.10;;;;;;;23.52;60.54;98769.69;5056644;28;20029;-76
2021/06/30 00:19:54;;;;;;;0.05;0.05;;;;;;;23.46;60.50;98765.72;5085360;28;20031;-77
2021/06/30 00:22:20;;;;;;;0.00;0.00;;;;;;;23.38;60.75;98756.66;5089765;28;20418;-76
2021/06/30 00:24:45;;;;;;;0.28;0.28;;;;;;;23.32;60.67;98772.56;5090902;28;20182;-77
2021/06/30 00:27:11;;;;;;;0.10;0.10;;;;;;;23.26;60.67;98763.13;5090049;28;20031;-78
2021/06/30 00:29:36;;;;;;;0.30;0.30;;;;;;;23.23;60.98;98773.97;5091779;28;20028;-77
2021/06/30 00:32:02;;;;;;;1.95;0.63;;;;;;;23.20;60.73;98777.47;5060595;28;20063;-77
2021/06/30 00:34:27;;;;;;;0.00;0.00;;;;;;;23.16;60.81;98771.94;5053127;28;20035;-77
2021/06/30 00:36:52;;;;;;;0.10;0.10;;;;;;;23.14;61.16;98776.94;5071514;28;20442;-78
2021/06/30 00:39:21;;;;;;;0.05;0.05;;;;;;;23.10;61.02;98776.13;5052879;28;20033;-76
2021/06/30 00:41:47;;;;;;;0.10;0.10;;;;;;;23.07;61.17;98772.19;5071440;28;20070;-79
2021/06/30 00:44:13;;;;;;;0.50;0.50;;;;;;;23.05;61.24;98781.91;5070488;28;20036;-78
2021/06/30 00:46:40;;;;;;;0.38;0.38;;;;;;;23.02;61.18;98777.94;5065140;28;20051;-79
2021/06/30 00:49:07;;;;;;;0.20;0.20;;;;;;;22.98;61.35;98786.06;5052955;28;20036;-79
2021/06/30 00:51:33;;;;;;;0.10;0.10;;;;;;;23.00;61.14;98775.59;5052772;28;20043;-79
2021/06/30 00:53:58;;;;;;;0.00;0.00;;;;;;;23.01;61.06;98790.03;5058867;28;20020;-80
2021/06/30 00:56:28;;;;;;;0.00;0.00;;;;;;;23.00;60.92;98785.72;5072473;28;20024;-79
2021/06/30 00:58:56;;;;;;;0.10;0.10;;;;;;;23.00;60.88;98785.72;5072968;28;20067;-79
2021/06/30 01:01:22;;;;;;;;;;;;;;;23.01;60.96;98793.53;5068970;28;20449;-79
2021/06/30 01:03:49;;;;;;;0.10;0.10;;;;;;;22.99;61.09;98792.31;5073718;28;19916;-79
2021/06/30 01:06:15;;;;;;;0.00;0.00;;;;;;;23.00;61.14;98793.91;5073205;28;20090;-82
2021/06/30 01:08:41;;;;;;;0.10;0.10;;;;;;;23.01;60.92;98804.44;5090626;28;20086;-80
2021/06/30 01:11:07;;;;;;;0.00;0.00;;;;;;;23.02;61.07;98807.94;5089158;28;20028;-80
2021/06/30 01:13:32;;;;;;;0.00;0.00;;;;;;;22.98;61.20;98807.88;5065811;28;20035;-82
2021/06/30 01:15:58;;;;;;;0.08;0.08;;;;;;;22.93;61.41;98805.47;5056762;28;20039;-79
2021/06/30 01:18:26;;;;;;;0.05;0.05;;;;;;;22.94;61.38;98817.94;5080371;28;20044;-78
2021/06/30 01:20:53;;;;;;;0.00;0.00;;;;;;;22.94;61.29;98817.94;5061704;28;20028;-80
2021/06/30 01:23:19;;;;;;;0.20;0.20;;;;;;;22.94;61.61;98817.94;5063817;28;20479;-78
2021/06/30 01:25:46;;;;;;;0.10;0.10;;;;;;;22.96;61.27;98812.13;5072960;28;20125;-78
2021/06/30 01:28:13;;;;;;;0.10;0.10;;;;;;;23.01;61.41;98818.06;5056287;28;20025;-77
2021/06/30 01:30:39;;;;;;;0.10;0.10;;;;;;;23.05;61.40;98811.91;5074342;28;20040;-78
2021/06/30 01:33:05;;;;;;;0.00;0.00;;;;;;;23.07;61.29;98809.56;5090700;28;20024;-78
2021/06/30 01:35:31;;;;;;;0.03;0.03;;;;;;;23.11;61.28;98818.63;5094664;28;20036;-78
2021/06/30 01:37:56;;;;;;;0.00;0.00;;;;;;;23.15;61.15;98822.94;5094703;28;20031;-77
2021/06/30 01:40:22;;;;;;;0.00;0.00;;;;;;;23.21;61.03;98825.41;5094656;28;20028;-77
2021/06/30 01:42:52;;;;;;;0.10;0.10;;;;;;;23.24;61.11;98820.00;5094276;28;20077;-77
2021/06/30 01:45:18;;;;;;;0.00;0.00;;;;;;;23.25;60.47;98823.53;5094422;28;20055;-77
2021/06/30 01:47:43;;;;;;;0.00;0.00;;;;;;;23.26;60.60;98825.88;5081812;28;20056;-76
2021/06/30 01:50:10;;;;;;;0.08;0.08;;;;;;;23.25;60.55;98818.84;5094218;28;20115;-77
2021/06/30 01:52:36;;;;;;;0.00;0.00;;;;;;;23.25;60.45;98820.78;5094704;28;20074;-78
2021/06/30 01:55:04;;;;;;;0.00;0.00;;;;;;;23.20;60.20;98829.28;5092630;28;20035;-78
2021/06/30 01:57:29;;;;;;;0.00;0.00;;;;;;;23.20;60.63;98826.56;5094250;28;20024;-78
2021/06/30 01:59:55;;;;;;;0.00;0.00;;;;;;;23.18;60.53;98826.94;5092816;28;20601;-77
2021/06/30 02:02:25;;;;;;;0.00;0.00;;;;;;;23.13;60.70;98830.72;5093716;28;20028;-78
2021/06/30 02:05:12;;;;;;;0.00;0.00;;;;;;;23.11;60.57;98830.28;5092325;28;20399;-78
2021/06/30 02:07:39;;;;;;;0.00;0.00;;;;;;;23.08;60.59;98836.47;5072407;28;20043;-77
2021/06/30 02:10:09;;;;;;;0.00;0.00;;;;;;;23.08;60.34;98846.59;5055630;28;20120;-77
2021/06/30 02:12:35;;;;;;;0.25;0.05;;;;;;;23.05;60.64;98841.91;5088810;28;20038;-77
2021/06/30 02:15:05;;;;;;;0.00;0.00;;;;;;;23.04;60.59;98838.38;5085900;28;20027;-77
2021/06/30 02:17:30;;;;;;;0.10;0.10;;;;;;;23.03;60.78;98856.69;5073102;28;20033;-76
2021/06/30 02:19:56;;;;;;;0.00;0.00;;;;;;;23.02;60.91;98855.09;5071618;28;20029;-77
2021/06/30 02:22:21;;;;;;;0.00;0.00;;;;;;;22.98;60.83;98854.22;5059981;28;20031;-77
2021/06/30 02:24:47;;;;;;;0.00;0.00;;;;;;;22.96;60.92;98853.81;5085512;28;20045;-80
2021/06/30 02:27:13;;;;;;;0.00;0.00;;;;;;;22.91;61.13;98853.34;5055145;28;20047;-77
2021/06/30 02:29:39;;;;;;;0.28;0.28;;;;;;;22.90;61.14;98859.94;5068705;28;20042;-77
2021/06/30 02:32:04;;;;;;;0.00;0.00;;;;;;;22.88;61.51;98859.53;5093363;28;20024;-76
2021/06/30 02:34:30;;;;;;;0.10;0.10;;;;;;;22.83;61.53;98861.38;5086000;28;20495;-76
2021/06/30 02:36:56;;;;;;;0.10;0.10;;;;;;;22.85;61.53;98870.00;5073130;28;20021;-76
2021/06/30 02:39:21;;;;;;;0.00;0.00;;;;;;;22.84;61.69;98879.31;5071617;28;20032;-76
2021/06/30 02:41:46;;;;;;;0.00;0.00;;;;;;;22.89;61.97;98871.97;5072982;28;20017;-77
2021/06/30 02:44:12;;;;;;;0.00;0.00;;;;;;;22.88;62.15;98865.75;5075335;28;20032;-78
2021/06/30 02:46:37;;;;;;;0.00;0.00;;;;;;;22.91;61.84;98866.97;5075209;28;20044;-76
2021/06/30 02:49:03;;;;;;;0.10;0.10;;;;;;;22.93;61.63;98867.41;5056888;28;20036;-77
2021/06/30 02:51:29;;;;;;;0.00;0.00;;;;;;;22.93;61.61;98870.91;5092656;28;20036;-77
2021/06/30 02:53:54;;;;;;;0.05;0.05;;;;;;;22.96;61.67;98866.66;5074878;28;20034;-76
2021/06/30 02:56:21;;;;;;;0.00;0.00;;;;;;;22.98;61.82;98876.03;5093059;28;20024;-79
2021/06/30 02:58:50;;;;;;;0.10;0.10;;;;;;;23.02;61.53;98876.09;5093055;28;20506;-78
2021/06/30 03:01:17;;;;;;;0.00;0.00;;;;;;;23.05;61.67;98882.81;5074702;28;20024;-78
2021/06/30 03:03:43;;;;;;;0.00;0.00;;;;;;;23.08;61.50;98887.50;5092989;28;20043;-79
2021/06/30 03:06:08;;;;;;;0.00;0.00;;;;;;;23.14;61.34;98880.59;5065856;28;20575;-78
2021/06/30 03:08:34;;;;;;;0.10;0.10;;;;;;;23.22;61.38;98878.78;5092357;28;20035;-76
2021/06/30 03:10:59;;;;;;;0.00;0.00;;;;;;;23.30;60.97;98885.94;5092486;28;20048;-77
2021/06/30 03:13:24;;;;;;;0.00;0.00;;;;;;;23.41;60.72;98883.38;5092471;28;20039;-78
2021/06/30 03:15:51;;;;;;;0.00;0.00;;;;;;;23.53;60.81;98877.72;5092720;28;20062;-77
2021/06/30 03:18:18;;;;;;;0.00;0.00;;;;;;;23.70;60.37;98873.69;5083455;28;20028;-77
2021/06/30 03:20:44;;;;;;;0.00;0.00;;;;;;;23.89;59.85;98878.25;5072173;28;20037;-78
2021/06/30 03:23:10;;;;;;;0.10;0.10;;;;;;;24.10;59.43;98882.44;5072023;28;20035;-76
2021/06/30 03:25:35;;;;;;;0.10;0.10;;;;;;;24.33;58.53;98881.53;5085059;28;20509;-76
2021/06/30 03:28:00;;;;;;;0.00;0.00;;;;;;;24.56;58.08;98871.25;5092864;28;20028;-76
2021/06/30 03:30:26;;;;;;;0.00;0.00;;;;;;;24.82;57.81;98872.31;5090972;28;20032;-77
2021/06/30 03:32:51;;;;;;;0.08;0.08;;;;;;;25.06;56.61;98870.16;5073591;28;20030;-77
2021/06/30 03:35:17;;;;;;;0.00;0.00;;;;;;;25.35;56.32;98873.94;5071441;28;20024;-76
2021/06/30 03:37:42;;;;;;;0.00;0.00;;;;;;;25.65;55.14;98872.22;5071904;28;20468;-76
2021/06/30 03:40:08;;;;;;;0.00;0.00;;;;;;;25.93;54.44;98863.34;5053614;28;20035;-79
2021/06/30 03:42:34;;;;;;;0.10;0.10;;;;;;;26.22;53.79;98871.72;5071962;28;20166;-77
2021/06/30 03:44:59;;;;;;;0.00;0.00;;;;;;;26.52;53.02;98867.88;5056793;28;20110;-79
2021/06/30 03:47:25;;;;;;;0.17;0.05;;;;;;;26.83;52.34;98871.09;5059057;28;20402;-78
2021/06/30 03:49:51;;;;;;;0.00;0.00;;;;;;;27.12;51.31;98869.19;5083935;28;20043;-77
2021/06/30 03:52:16;;;;;;;0.00;0.00;;;;;;;27.43;50.70;98877.81;5073110;28;20030;-74
2021/06/30 03:54:42;;;;;;;0.00;0.00;;;;;;;27.72;49.84;98877.75;5092001;28;20024;-75
2021/06/30 03:57:08;;;;;;;0.00;0.00;;;;;;;28.04;49.19;98879.63;5091566;28;20024;-75
2021/06/30 03:59:33;;;;;;;0.00;0.00;;;;;;;28.36;47.81;98880.69;5091376;28;20032;-75
2021/06/30 04:01:59;;;;;;;0.00;0.00;;;;;;;28.69;47.06;98868.34;5076487;28;20025;-75
2021/06/30 04:04:25;;;;;;;0.00;0.00;;;;;;;29.01;46.58;98863.78;5071585;28;20028;-74
2021/06/30 04:06:51;;;;;;;0.00;0.00;;;;;;;29.31;45.50;98868.66;5071192;28;20031;-76
2021/06/30 04:09:16;;;;;;;0.00;0.00;;;;;;;29.62;45.22;98874.25;5071731;28;20107;-77
2021/06/30 04:11:42;;;;;;;0.00;0.00;;;;;;;29.95;44.23;98873.94;5071368;28;20036;-76
2021/06/30 04:14:08;;;;;;;0.00;0.00;;;;;;;30.24;43.88;98876.34;5071362;28;20059;-74
2021/06/30 04:16:34;;;;;;;0.03;0.03;;;;;;;30.54;43.16;98874.78;5053664;28;20036;-79
2021/06/30 04:18:59;;;;;;;0.00;0.00;;;;;;;30.80;42.59;98876.75;5070415;28;20032;-78
2021/06/30 04:21:25;;;;;;;0.00;0.00;;;;;;;31.06;41.86;98876.38;5059359;28;20105;-83
2021/06/30 04:23:50;;;;;;;0.00;0.00;;;;;;;31.32;41.17;98874.75;5062799;28;20028;-81
2021/06/30 04:26:16;;;;;;;0.00;0.00;;;;;;;31.50;40.73;98874.44;5064778;28;20051;-80
2021/06/30 04:28:41;;;;;;;0.10;0.10;;;;;;;31.59;40.17;98869.16;5068022;28;20051;-84
2021/06/30 04:31:06;;;;;;;0.00;0.00;;;;;;;31.64;39.69;98870.66;5073245;28;20577;-86
2021/06/30 04:33:32;;;;;;;0.00;0.00;;;;;;;31.60;40.08;98870.72;5072900;28;20438;-85
2021/06/30 04:35:58;;;;;;;0.00;0.00;;;;;;;31.55;39.87;98862.88;5073150;28;20419;-84
2021/06/30 04:38:27;;;;;;;0.10;0.10;;;;;;;31.63;40.41;98874.63;5073564;28;20564;-85
2021/06/30 04:40:53;;;;;;;0.00;0.00;;;;;;;31.72;39.94;98869.31;5073285;28;20086;-84
2021/06/30 04:43:19;;;;;;;0.10;0.10;;;;;;;31.81;40.13;98868.78;5073042;28;20028;-84
2021/06/30 04:45:44;;;;;;;0.03;0.03;;;;;;;31.97;39.67;98879.13;5089848;28;20035;-84
2021/06/30 04:48:10;;;;;;;0.00;0.00;;;;;;;32.11;39.81;98872.50;5097358;28;20024;-83
2021/06/30 04:50:35;;;;;;;0.00;0.00;;;;;;;32.31;39.19;98880.81;5096469;28;20502;-83
2021/06/30 04:53:01;;;;;;;0.00;0.00;;;;;;;32.45;39.19;98878.94;5079379;28;20123;-83
2021/06/30 04:55:26;;;;;;;0.00;0.00;;;;;;;32.69;38.93;98872.06;5096168;28;20132;-84
2021/06/30 04:57:52;;;;;;;0.00;0.00;;;;;;;32.91;39.23;98866.03;5079484;28;20035;-84
2021/06/30 05:00:17;;;;;;;0.00;0.00;;;;;;;33.25;38.99;98875.88;5096337;28;20371;-84
2021/06/30 05:02:43;;;;;;;0.00;0.00;;;;;;;33.56;39.07;98875.50;5079574;28;20028;-84
2021/06/30 05:05:08;;;;;;;0.08;0.08;;;;;;;33.87;38.37;98882.63;5079383;28;20496;-83
2021/06/30 05:07:34;;;;;;;0.03;0.03;;;;;;;34.14;37.75;98880.25;5097741;28;20028;-84
2021/06/30 05:09:59;;;;;;;0.00;0.00;;;;;;;34.44;37.58;98886.50;5097429;28;20453;-83
2021/06/30 05:12:25;;;;;;;0.05;0.05;;;;;;;34.69;37.10;98881.41;5079481;28;20016;-83
2021/06/30 05:14:50;;;;;;;0.00;0.00;;;;;;;34.82;36.95;98884.94;5097293;28;20028;-82
2021/06/30 05:17:16;;;;;;;0.00;0.00;;;;;;;34.81;36.52;98880.63;5096454;28;20020;-82
2021/06/30 05:19:41;;;;;;;0.00;0.00;;;;;;;34.66;37.28;98883.06;5097424;28;20033;-82
2021/06/30 05:22:07;;;;;;;0.00;0.00;;;;;;;34.77;37.13;98879.97;5097564;28;20027;-82
2021/06/30 05:24:33;;;;;;;0.00;0.00;;;;;;;34.92;36.57;98878.31;5078790;28;20071;-83
2021/06/30 05:26:59;;;;;;;0.10;0.10;;;;;;;35.06;36.42;98887.41;5079459;28;20473;-81
2021/06/30 05:29:25;;;;;;;0.10;0.10;;;;;;;35.20;35.92;98886.91;5079095;28;20024;-82
2021/06/30 05:31:50;;;;;;;0.00;0.00;;;;;;;35.46;35.87;98888.88;5097721;28;20028;-81
2021/06/30 05:34:16;;;;;;;0.10;0.10;;;;;;;35.62;35.88;98887.91;5079081;28;20020;-82
2021/06/30 05:36:48;;;;;;;0.00;0.00;;;;;;;35.83;35.12;98887.16;5095999;28;20127;-81
2021/06/30 05:39:18;;;;;;;0.10;0.10;;;;;;;36.02;35.04;98890.88;5079234;28;20120;-84
2021/06/30 05:41:44;;;;;;;0.10;0.10;;;;;;;36.24;34.74;98890.03;5095902;28;20490;-83
2021/06/30 05:44:12;;;;;;;0.00;0.00;;;;;;;36.44;34.37;98891.69;5079117;28;20027;-83
2021/06/30 05:46:37;;;;;;;;;;;;;;;36.66;34.25;98895.19;5096246;28;20445;-82
2021/06/30 05:49:02;;;;;;;0.00;0.00;;;;;;;36.89;34.03;98897.94;5097629;28;19960;-84
2021/06/30 05:51:28;;;;;;;0.30;0.30;;;;;;;37.08;33.47;98891.16;5078537;28;20050;-83
2021/06/30 05:53:53;;;;;;;0.05;0.05;;;;;;;37.31;33.28;98895.34;5096000;28;20422;-83
2021/06/30 05:56:19;;;;;;;0.10;0.10;;;;;;;37.52;33.17;98889.38;5097198;28;20069;-83
2021/06/30 05:58:44;;;;;;;0.00;0.00;;;;;;;37.74;32.83;98881.59;5092547;28;20020;-83
2021/06/30 06:01:11;;;;;;;1.25;0.85;;;;;;;37.90;31.70;98891.66;5075478;28;20031;-83
2021/06/30 06:03:36;;;;;;;0.00;0.00;;;;;;;38.03;31.96;98891.50;5075384;28;20020;-83
2021/06/30 06:06:02;;;;;;;0.00;0.00;;;;;;;38.17;31.59;98886.50;5093502;28;20046;-83
2021/06/30 06:08:27;;;;;;;0.00;0.00;;;;;;;38.28;31.54;98898.72;5075029;28;20081;-83
2021/06/30 06:10:52;;;;;;;0.03;0.03;;;;;;;38.33;31.36;98886.16;5075742;28;20514;-83
2021/06/30 06:13:18;;;;;;;0.10;0.10;;;;;;;38.43;31.05;98884.88;5093499;28;20502;-83
2021/06/30 06:15:43;;;;;;;0.00;0.00;;;;;;;38.46;31.04;98885.19;5075419;28;20086;-83
2021/06/30 06:18:09;;;;;;;0.30;0.30;;;;;;;38.39;31.38;98883.50;5093735;28;20085;-83
2021/06/30 06:20:35;;;;;;;0.07;0.07;;;;;;;38.42;31.05;98890.94;5075250;28;20085;-83
2021/06/30 06:23:00;;;;;;;0.20;0.20;;;;;;;38.24;30.76;98889.72;5075613;28;20387;-83
2021/06/30 06:25:26;;;;;;;1.90;0.77;;;;;;;37.97;31.72;98885.75;5074930;28;20048;-83
2021/06/30 06:27:51;;;;;;;0.07;0.07;;;;;;;37.64;31.38;98878.03;5075461;28;20035;-83
2021/06/30 06:30:17;;;;;;;0.10;0.10;;;;;;;37.25;32.43;98891.63;5092023;28;20473;-82
2021/06/30 06:32:43;;;;;;;0.10;0.10;;;;;;;36.90;32.69;98885.53;5075109;28;20032;-83
2021/06/30 06:35:08;;;;;;;0.07;0.07;;;;;;;36.70;32.99;98889.50;5075451;28;20036;-83
2021/06/30 06:37:37;;;;;;;0.17;0.17;;;;;;;36.64;33.18;98886.53;5074905;28;20413;-82
2021/06/30 06:40:04;;;;;;;0.30;0.30;;;;;;;36.54;33.75;98879.38;5092081;28;20024;-83
2021/06/30 06:42:31;;;;;;;0.10;0.10;;;;;;;36.50;32.54;98881.50;5093392;28;20085;-83
2021/06/30 06:44:57;;;;;;;0.10;0.10;;;;;;;36.38;33.13;98886.72;5093515;28;20479;-82
2021/06/30 06:47:22;;;;;;;0.20;0.20;;;;;;;36.40;33.98;98879.94;5074840;28;20036;-83
2021/06/30 06:49:48;;;;;;;0.40;0.40;;;;;;;36.22;33.62;98875.81;5091833;28;20119;-82
2021/06/30 06:52:13;;;;;;;0.22;0.22;;;;;;;35.96;33.68;98866.84;5074880;28;20027;-82
2021/06/30 06:54:39;;;;;;;0.08;0.08;;;;;;;35.78;34.65;98876.59;5074673;28;20036;-83
2021/06/30 06:57:04;;;;;;;0.30;0.30;;;;;;;35.61;35.04;98866.88;5092643;28;20020;-83
2021/06/30 06:59:30;;;;;;;0.00;0.00;;;;;;;35.46;34.74;98869.41;5074610;28;20440;-82
2021/06/30 07:01:55;;;;;;;0.50;0.43;;;;;;;35.24;35.00;98853.44;5093040;28;20024;-83
2021/06/30 07:04:21;;;;;;;0.10;0.10;;;;;;;35.21;35.84;98871.78;5074930;28;20082;-82
2021/06/30 07:06:46;;;;;;;0.03;0.03;;;;;;;35.17;35.77;98860.03;5093001;28;20099;-82
2021/06/30 07:09:11;;;;;;;0.13;0.13;;;;;;;35.18;35.57;98864.38;5074501;28;20032;-82
2021/06/30 07:11:37;;;;;;;0.10;0.10;;;;;;;35.18;35.45;98863.56;5091102;28;20020;-83
2021/06/30 07:14:02;;;;;;;0.15;0.15;;;;;;;35.10;36.08;98857.47;5091425;28;20031;-82
2021/06/30 07:16:28;;;;;;;0.10;0.10;;;;;;;34.92;36.06;98855.31;5092520;28;20028;-82
2021/06/30 07:18:53;;;;;;;0.08;0.08;;;;;;;34.64;35.92;98857.75;5091306;28;20032;-82
2021/06/30 07:21:19;;;;;;;0.35;0.35;;;;;;;34.32;37.35;98859.50;5091391;28;20052;-82
2021/06/30 07:23:44;;;;;;;0.15;0.15;;;;;;;34.18;37.56;98860.72;5074207;28;20039;-82
2021/06/30 07:26:12;;;;;;;0.65;0.65;;;;;;;34.05;37.26;98868.25;5092342;28;20130;-82
2021/06/30 07:28:38;;;;;;;0.32;0.32;;;;;;;33.94;37.72;98868.56;5074051;28;20051;-82
2021/06/30 07:31:05;;;;;;;0.10;0.10;;;;;;;33.81;38.07;98857.38;5074128;28;20039;-82
2021/06/30 07:33:30;;;;;;;0.10;0.10;;;;;;;33.73;38.96;98864.34;5090864;28;20061;-82
2021/06/30 07:35:56;;;;;;;0.15;0.15;;;;;;;33.48;39.34;98855.50;5073931;28;20032;-83
2021/06/30 07:38:21;;;;;;;0.55;0.55;;;;;;;33.42;39.96;98860.00;5092698;28;20395;-82
2021/06/30 07:40:47;;;;;;;0.52;0.52;;;;;;;33.37;39.91;98852.22;5073839;28;20027;-82
2021/06/30 07:43:13;;;;;;;0.28;0.28;;;;;;;33.32;40.29;98853.53;5091003;28;20478;-82
2021/06/30 07:45:38;;;;;;;0.00;0.00;;;;;;;33.35;39.87;98849.13;5091277;28;20440;-82
2021/06/30 07:48:05;;;;;;;0.03;0.03;;;;;;;33.44;40.19;98854.81;5091591;28;20048;-82
2021/06/30 07:50:30;;;;;;;0.15;0.15;;;;;;;33.44;39.94;98840.97;5073547;28;20494;-81
2021/06/30 07:52:55;;;;;;;0.35;0.35;;;;;;;33.45;40.14;98839.75;5073488;28;20035;-81
2021/06/30 07:55:22;;;;;;;0.00;0.00;;;;;;;33.50;39.92;98841.97;5090885;28;20089;-81
2021/06/30 07:57:47;;;;;;;0.00;0.00;;;;;;;33.55;39.74;98842.69;5073686;28;20020;-81
2021/06/30 08:00:14;;;;;;;0.03;0.03;;;;;;;33.51;39.17;98845.53;5091820;28;20855;-81
2021/06/30 08:02:39;;;;;;;0.00;0.00;;;;;;;33.38;40.28;98842.72;5091698;28;20028;-81
2021/06/30 08:05:06;;;;;;;0.52;0.52;;;;;;;33.37;39.73;98838.38;5073577;28;20493;-81
2021/06/30 08:07:32;;;;;;;0.25;0.25;;;;;;;33.18;39.99;98840.81;5091583;28;20032;-80
2021/06/30 08:09:58;;;;;;;0.30;0.30;;;;;;;33.03;40.19;98845.94;5091766;28;20030;-81
2021/06/30 08:12:24;;;;;;;0.00;0.00;;;;;;;32.90;41.17;98839.56;5090416;28;20115;-81
2021/06/30 08:14:49;;;;;;;0.17;0.17;;;;;;;32.83;41.26;98839.72;5091337;28;20028;-81
2021/06/30 08:17:15;;;;;;;1.45;0.65;;;;;;;32.82;41.84;98833.41;5089990;28;20031;-81
2021/06/30 08:19:40;;;;;;;0.28;0.28;;;;;;;32.74;41.02;98837.53;5091186;28;20461;-82
2021/06/30 08:22:12;;;;;;;0.70;0.70;;;;;;;32.69;40.92;98849.91;5089321;28;20085;-83
2021/06/30 08:24:39;;;;;;;0.00;0.00;;;;;;;32.65;40.82;98840.13;5089698;28;20067;-82
2021/06/30 08:27:04;;;;;;;0.10;0.10;;;;;;;32.65;40.69;98835.34;5090106;28;20054;-83
2021/06/30 08:29:30;;;;;;;0.15;0.15;;;;;;;32.67;41.04;98835.72;5089862;28;20028;-82
2021/06/30 08:31:57;;;;;;;0.00;0.00;;;;;;;32.71;41.18;98830.09;5072954;28;20028;-81
2021/06/30 08:34:22;;;;;;;0.00;0.00;;;;;;;32.80;40.04;98832.28;5073194;28;20035;-81
2021/06/30 08:36:54;;;;;;;0.10;0.10;;;;;;;32.76;40.59;98828.81;5090914;28;20024;-83
2021/06/30 08:39:19;;;;;;;0.22;0.22;;;;;;;32.72;39.80;98828.88;5072991;28;20024;-82
2021/06/30 08:41:44;;;;;;;2.08;0.80;;;;;;;32.71;40.01;98832.84;5072805;28;20031;-82
2021/06/30 08:44:10;;;;;;;0.50;0.50;;;;;;;32.57;40.07;98829.22;5073084;28;20047;-83
2021/06/30 08:46:38;;;;;;;0.32;0.32;;;;;;;32.49;40.76;98827.81;5089686;28;20035;-82
2021/06/30 08:49:04;;;;;;;0.20;0.20;;;;;;;32.46;40.68;98823.16;5090952;28;20631;-83
2021/06/30 08:51:30;;;;;;;0.70;0.22;;;;;;;32.43;40.58;98828.78;5091077;28;20020;-81
2021/06/30 08:53:56;;;;;;;0.20;0.20;;;;;;;32.45;41.34;98826.38;5089931;28;20498;-82
2021/06/30 08:56:32;;;;;;;0.05;0.05;;;;;;;32.48;40.32;98825.50;5073205;28;20039;-82
2021/06/30 08:59:01;;;;;;;0.05;0.05;;;;;;;32.54;40.63;98819.03;5073143;28;20024;-83
2021/06/30 09:01:29;;;;;;;0.17;0.17;;;;;;;32.50;40.66;98817.53;5072996;28;20464;-81
2021/06/30 09:03:56;;;;;;;0.13;0.13;;;;;;;32.53;40.37;98819.44;5072598;28;20029;-82
2021/06/30 09:06:23;;;;;;;0.00;0.00;;;;;;;32.51;40.94;98816.34;5072884;28;20032;-84
2021/06/30 09:08:48;;;;;;;0.13;0.13;;;;;;;32.56;41.16;98821.34;5072636;28;20115;-84
2021/06/30 09:11:16;;;;;;;0.45;0.35;;;;;;;32.56;40.55;98808.28;5089549;28;20562;-80
2021/06/30 09:13:42;;;;;;;0.10;0.10;;;;;;;32.62;40.41;98802.22;5072502;28;20085;-82
2021/06/30 09:16:08;;;;;;;0.10;0.10;;;;;;;32.71;40.59;98796.88;5091142;28;20036;-81
2021/06/30 09:18:39;;;;;;;0.10;0.10;;;;;;;32.82;40.79;98800.16;5090858;28;20030;-82
2021/06/30 09:21:29;;;;;;;0.20;0.20;;;;;;;32.83;40.08;98790.66;5072732;28;20067;-82
2021/06/30 09:24:05;;;;;;;0.52;0.30;;;;;;;32.82;40.39;98791.09;5072601;28;20119;-81
2021/06/30 09:26:36;;;;;;;0.40;0.40;;;;;;;32.77;40.75;98789.63;5090318;28;20082;-82
2021/06/30 09:29:07;;;;;;;0.70;0.70;;;;;;;32.72;41.21;98798.44;5089576;28;20032;-82
2021/06/30 09:31:35;;;;;;;0.30;0.30;;;;;;;32.60;40.70;98794.34;5072440;28;20479;-83
2021/06/30 09:34:01;;;;;;;0.63;0.63;;;;;;;32.52;41.50;98784.66;5075481;28;20061;-83
2021/06/30 09:36:33;;;;;;;1.15;0.98;;;;;;;32.49;41.28;98777.22;5093128;28;20028;-82
2021/06/30 09:39:12;;;;;;;0.47;0.47;;;;;;;32.50;41.28;98773.25;5076168;28;20097;-83
2021/06/30 09:41:38;;;;;;;0.00;0.00;;;;;;;32.49;41.20;98763.41;5092802;28;20028;-83
2021/06/30 09:44:05;;;;;;;0.20;0.20;;;;;;;32.52;41.88;98762.50;5076018;28;20407;-82
2021/06/30 09:46:33;;;;;;;0.10;0.10;;;;;;;32.59;40.70;98758.81;5084528;28;20036;-82
2021/06/30 09:49:05;;;;;;;0.10;0.10;;;;;;;32.61;40.26;98757.16;5093053;28;20020;-82
2021/06/30 09:51:30;;;;;;;0.10;0.10;;;;;;;32.66;40.51;98755.88;5094151;28;20055;-82
2021/06/30 09:54:06;;;;;;;0.10;0.10;;;;;;;32.60;40.58;98750.06;5094059;28;20425;-83
2021/06/30 09:56:38;;;;;;;0.08;0.08;;;;;;;32.63;40.54;98754.75;5075563;28;20110;-83
2021/06/30 09:59:09;;;;;;;0.10;0.10;;;;;;;32.70;40.65;98760.09;5094152;28;20024;-82
2021/06/30 10:01:36;;;;;;;0.00;0.00;;;;;;;32.67;40.18;98746.34;5092451;28;20474;-84
2021/06/30 10:04:02;;;;;;;0.00;0.00;;;;;;;32.70;39.89;98746.25;5094003;28;20039;-82
2021/06/30 10:06:31;;;;;;;0.00;0.00;;;;;;;32.77;41.05;98734.25;5092813;28;20024;-82
2021/06/30 10:08:59;;;;;;;0.05;0.05;;;;;;;32.84;40.15;98736.06;5092776;28;20032;-82
2021/06/30 10:11:26;;;;;;;0.10;0.10;;;;;;;32.96;40.28;98742.84;5092629;28;20067;-82
2021/06/30 10:13:52;;;;;;;;;;;;;;;33.06;39.68;98744.56;5075793;28;20038;-82
2021/06/30 10:16:19;;;;;;;0.15;0.15;;;;;;;33.10;40.27;98730.63;5075279;28;19908;-82
2021/06/30 10:18:47;;;;;;;;;;;;;;;33.23;40.84;98730.66;5093767;28;20028;-82
2021/06/30 10:21:15;;;;;;;0.10;0.10;;;;;;;33.32;40.80;98728.06;5075440;28;19924;-83
2021/06/30 10:23:41;;;;;;;0.32;0.32;;;;;;;33.42;41.08;98724.19;5075194;28;20024;-81
2021/06/30 10:26:06;;;;;;;0.00;0.00;;;;;;;33.52;40.79;98723.13;5075204;28;20513;-82
2021/06/30 10:28:32;;;;;;;0.10;0.10;;;;;;;33.63;40.10;98720.03;5093103;28;20023;-84
2021/06/30 10:30:58;;;;;;;0.10;0.10;;;;;;;33.62;40.24;98718.47;5075100;28;20063;-83
2021/06/30 10:33:38;;;;;;;1.00;0.43;;;;;;;33.61;39.88;98722.47;5093320;28;20110;-81
2021/06/30 10:36:05;;;;;;;1.38;0.30;;;;;;;33.55;40.21;98712.38;5092027;28;20032;-82
2021/06/30 10:38:55;;;;;;;0.10;0.10;;;;;;;33.53;40.32;98710.03;5093706;28;20024;-84
2021/06/30 10:41:39;;;;;;;0.15;0.15;;;;;;;33.43;40.50;98716.69;5074960;28;20132;-81
2021/06/30 10:44:17;;;;;;;0.20;0.20;;;;;;;33.39;40.69;98707.69;5091289;28;20494;-82
2021/06/30 10:46:43;;;;;;;0.03;0.03;;;;;;;33.35;41.16;98713.34;5093029;28;20028;-81
2021/06/30 10:49:29;;;;;;;0.20;0.20;;;;;;;33.24;40.72;98705.31;5075114;28;20071;-83
2021/06/30 10:51:57;;;;;;;0.20;0.20;;;;;;;33.20;41.16;98705.41;5074774;28;20027;-82
2021/06/30 10:54:32;;;;;;;0.10;0.10;;;;;;;33.20;41.40;98694.31;5092944;28;20031;-81
2021/06/30 10:57:19;;;;;;;0.22;0.22;;;;;;;33.29;41.23;98703.97;5092906;28;20035;-82
2021/06/30 11:00:04;;;;;;;;;;;;;;;33.34;40.33;98693.16;5091911;28;20501;-81
2021/06/30 11:02:32;;;;;;;1.65;0.40;;;;;;;33.38;40.73;98687.50;5092973;28;20271;-81
2021/06/30 11:05:17;;;;;;;0.20;0.20;;;;;;;33.47;41.17;98692.41;5074415;28;20115;-81
2021/06/30 11:07:45;;;;;;;0.10;0.10;;;;;;;33.48;40.38;98672.56;5091200;28;20036;-82
2021/06/30 11:10:16;;;;;;;;;;;;;;;33.52;40.39;98677.97;5092913;28;20089;-82
2021/06/30 11:12:51;;;;;;;0.55;0.30;;;;;;;33.49;40.60;98676.88;5091258;28;20433;-82
2021/06/30 11:15:35;;;;;;;0.00;0.00;;;;;;;33.49;40.53;98667.78;5091334;28;20475;-82
2021/06/30 11:18:01;;;;;;;0.00;0.00;;;;;;;33.50;40.60;98670.13;5092688;28;20028;-82
2021/06/30 11:20:50;;;;;;;0.00;0.00;;;;;;;33.48;40.18;98663.47;5092205;28;20038;-82
2021/06/30 11:23:16;;;;;;;0.10;0.10;;;;;;;33.51;40.60;98652.28;5091200;28;20032;-83
2021/06/30 11:25:41;;;;;;;0.20;0.20;;;;;;;33.54;40.53;98663.69;5090683;28;20182;-82
2021/06/30 11:28:37;;;;;;;0.28;0.28;;;;;;;33.59;40.63;98663.16;5092712;28;20028;-81
2021/06/30 11:31:25;;;;;;;0.00;0.00;;;;;;;33.64;39.93;98655.06;5092265;28;20032;-82
2021/06/30 11:34:09;;;;;;;0.15;0.15;;;;;;;33.75;39.69;98651.16;5079399;28;20116;-83